sensor_id;sensor_type;location;lat;lon;timestamp;pressure;altitude;pressure_sealevel;temperature
64904;BMP280;51401;48.882;12.598;2023-11-19T00:00:48;64157.97;;;-137.53
64904;BMP280;51401;48.882;12.598;2023-11-19T00:03:14;64159.94;;;-137.53
64904;BMP280;51401;48.882;12.598;2023-11-19T00:05:39;64161.94;;;-137.53
64904;BMP280;51401;48.882;12.598;2023-11-19T00:08:04;64157.97;;;-137.53
64904;BMP280;51401;48.882;12.598;2023-11-19T00:10:31;64159.94;;;-137.53
64904;BMP280;51401;48.882;12.598;2023-11-19T00:12:56;64163.91;;;-137.53
64904;BMP280;51401;48.882;12.598;2023-11-19T00:15:22;64155.97;;;-137.53
64904;BMP280;51401;48.882;12.598;2023-11-19T00:17:49;64159.94;;;-137.53
64904;BMP280;51401;48.882;12.598;2023-11-19T00:20:16;64163.91;;;-137.53
64904;BMP280;51401;48.882;12.598;2023-11-19T00:22:42;64159.94;;;-137.53
64904;BMP280;51401;48.882;12.598;2023-11-19T00:25:08;64161.94;;;-137.53
64904;BMP280;51401;48.882;12.598;2023-11-19T00:27:34;64161.94;;;-137.53
64904;BMP280;51401;48.882;12.598;2023-11-19T00:29:59;64161.94;;;-137.53
64904;BMP280;51401;48.882;12.598;2023-11-19T00:32:25;64161.94;;;-137.53
64904;BMP280;51401;48.882;12.598;2023-11-19T00:34:50;64161.94;;;-137.53
64904;BMP280;51401;48.882;12.598;2023-11-19T00:37:16;64161.94;;;-137.53
64904;BMP280;51401;48.882;12.598;2023-11-19T00:39:42;64161.94;;;-137.53
64904;BMP280;51401;48.882;12.598;2023-11-19T00:42:08;64159.94;;;-137.53
64904;BMP280;51401;48.882;12.598;2023-11-19T00:44:35;64161.94;;;-137.53
64904;BMP280;51401;48.882;12.598;2023-11-19T00:47:00;64165.91;;;-137.53
64904;BMP280;51401;48.882;12.598;2023-11-19T00:49:26;64161.94;;;-137.53
64904;BMP280;51401;48.882;12.598;2023-11-19T00:51:51;64161.94;;;-137.53
64904;BMP280;51401;48.882;12.598;2023-11-19T00:54:16;64161.94;;;-137.53
64904;BMP280;51401;48.882;12.598;2023-11-19T00:56:42;64159.94;;;-137.53
64904;BMP280;51401;48.882;12.598;2023-11-19T00:59:07;64161.94;;;-137.53
64904;BMP280;51401;48.882;12.598;2023-11-19T01:01:32;64161.94;;;-137.53
64904;BMP280;51401;48.882;12.598;2023-11-19T01:03:58;64163.91;;;-137.53
64904;BMP280;51401;48.882;12.598;2023-11-19T01:06:29;64161.94;;;-137.53
64904;BMP280;51401;48.882;12.598;2023-11-19T01:08:56;64159.94;;;-137.53
64904;BMP280;51401;48.882;12.598;2023-11-19T01:11:25;64159.94;;;-137.53
64904;BMP280;51401;48.882;12.598;2023-11-19T01:13:51;64161.94;;;-137.53
64904;BMP280;51401;48.882;12.598;2023-11-19T01:16:18;64159.94;;;-137.53
64904;BMP280;51401;48.882;12.598;2023-11-19T01:18:44;64159.94;;;-137.53
64904;BMP280;51401;48.882;12.598;2023-11-19T01:21:09;64159.94;;;-137.53
64904;BMP280;51401;48.882;12.598;2023-11-19T01:23:35;64161.94;;;-137.53
64904;BMP280;51401;48.882;12.598;2023-11-19T01:26:00;64163.91;;;-137.53
64904;BMP280;51401;48.882;12.598;2023-11-19T01:28:26;64161.94;;;-137.53
64904;BMP280;51401;48.882;12.598;2023-11-19T01:30:51;64159.94;;;-137.53
64904;BMP280;51401;48.882;12.598;2023-11-19T01:33:17;64159.94;;;-137.53
64904;BMP280;51401;48.882;12.598;2023-11-19T01:35:42;64159.94;;;-137.53
64904;BMP280;51401;48.882;12.598;2023-11-19T01:38:07;64163.91;;;-137.53
64904;BMP280;51401;48.882;12.598;2023-11-19T01:40:36;64161.94;;;-137.53
64904;BMP280;51401;48.882;12.598;2023-11-19T01:43:02;64163.91;;;-137.53
64904;BMP280;51401;48.882;12.598;2023-11-19T01:45:28;64159.94;;;-137.53
64904;BMP280;51401;48.882;12.598;2023-11-19T01:47:58;64163.91;;;-137.53
64904;BMP280;51401;48.882;12.598;2023-11-19T01:50:25;64161.94;;;-137.53
64904;BMP280;51401;48.882;12.598;2023-11-19T01:52:54;64159.94;;;-137.53
64904;BMP280;51401;48.882;12.598;2023-11-19T01:55:22;64159.94;;;-137.53
64904;BMP280;51401;48.882;12.598;2023-11-19T01:57:49;64155.97;;;-137.53
64904;BMP280;51401;48.882;12.598;2023-11-19T02:00:15;64159.94;;;-137.53
64904;BMP280;51401;48.882;12.598;2023-11-19T02:02:41;64163.91;;;-137.53
64904;BMP280;51401;48.882;12.598;2023-11-19T02:05:09;64155.97;;;-137.53
64904;BMP280;51401;48.882;12.598;2023-11-19T02:07:34;64159.94;;;-137.53
64904;BMP280;51401;48.882;12.598;2023-11-19T02:09:59;64159.94;;;-137.53
64904;BMP280;51401;48.882;12.598;2023-11-19T02:12:27;64157.97;;;-137.53
64904;BMP280;51401;48.882;12.598;2023-11-19T02:14:59;64161.94;;;-137.53
64904;BMP280;51401;48.882;12.598;2023-11-19T02:17:31;64163.91;;;-137.53
64904;BMP280;51401;48.882;12.598;2023-11-19T02:19:57;64157.97;;;-137.53
64904;BMP280;51401;48.882;12.598;2023-11-19T02:22:23;64161.94;;;-137.53
64904;BMP280;51401;48.882;12.598;2023-11-19T02:24:51;64161.94;;;-137.53
64904;BMP280;51401;48.882;12.598;2023-11-19T02:27:49;64163.91;;;-137.53
64904;BMP280;51401;48.882;12.598;2023-11-19T02:30:16;64159.94;;;-137.53
64904;BMP280;51401;48.882;12.598;2023-11-19T02:32:42;64163.91;;;-137.53
64904;BMP280;51401;48.882;12.598;2023-11-19T02:35:08;64161.94;;;-137.53
64904;BMP280;51401;48.882;12.598;2023-11-19T02:37:38;64157.97;;;-137.53
64904;BMP280;51401;48.882;12.598;2023-11-19T02:40:04;64163.91;;;-137.53
64904;BMP280;51401;48.882;12.598;2023-11-19T02:42:30;64159.94;;;-137.53
64904;BMP280;51401;48.882;12.598;2023-11-19T02:44:56;64159.94;;;-137.53
64904;BMP280;51401;48.882;12.598;2023-11-19T02:47:21;64159.94;;;-137.53
64904;BMP280;51401;48.882;12.598;2023-11-19T02:49:49;64159.94;;;-137.53
64904;BMP280;51401;48.882;12.598;2023-11-19T02:52:17;64163.91;;;-137.53
64904;BMP280;51401;48.882;12.598;2023-11-19T02:54:43;64159.94;;;-137.53
64904;BMP280;51401;48.882;12.598;2023-11-19T02:57:09;64161.94;;;-137.53
64904;BMP280;51401;48.882;12.598;2023-11-19T02:59:38;64159.94;;;-137.53
64904;BMP280;51401;48.882;12.598;2023-11-19T03:02:05;64165.91;;;-137.53
64904;BMP280;51401;48.882;12.598;2023-11-19T03:04:33;64159.94;;;-137.53
64904;BMP280;51401;48.882;12.598;2023-11-19T03:06:58;64159.94;;;-137.53
64904;BMP280;51401;48.882;12.598;2023-11-19T03:09:23;64159.94;;;-137.53
64904;BMP280;51401;48.882;12.598;2023-11-19T03:11:49;64159.94;;;-137.53
64904;BMP280;51401;48.882;12.598;2023-11-19T03:14:15;64167.88;;;-137.53
64904;BMP280;51401;48.882;12.598;2023-11-19T03:16:40;64157.97;;;-137.53
64904;BMP280;51401;48.882;12.598;2023-11-19T03:19:05;64163.91;;;-137.53
64904;BMP280;51401;48.882;12.598;2023-11-19T03:21:31;64161.94;;;-137.53
64904;BMP280;51401;48.882;12.598;2023-11-19T03:23:57;64163.91;;;-137.53
64904;BMP280;51401;48.882;12.598;2023-11-19T03:26:26;64161.94;;;-137.53
64904;BMP280;51401;48.882;12.598;2023-11-19T03:28:51;64163.91;;;-137.53
64904;BMP280;51401;48.882;12.598;2023-11-19T03:31:16;64159.94;;;-137.53
64904;BMP280;51401;48.882;12.598;2023-11-19T03:33:42;64161.94;;;-137.53
64904;BMP280;51401;48.882;12.598;2023-11-19T03:36:07;64161.94;;;-137.53
64904;BMP280;51401;48.882;12.598;2023-11-19T03:38:34;64161.94;;;-137.53
64904;BMP280;51401;48.882;12.598;2023-11-19T03:40:59;64163.91;;;-137.53
64904;BMP280;51401;48.882;12.598;2023-11-19T03:43:25;64159.94;;;-137.53
64904;BMP280;51401;48.882;12.598;2023-11-19T03:45:50;64163.91;;;-137.53
64904;BMP280;51401;48.882;12.598;2023-11-19T03:48:15;64161.94;;;-137.53
64904;BMP280;51401;48.882;12.598;2023-11-19T03:50:41;64161.94;;;-137.53
64904;BMP280;51401;48.882;12.598;2023-11-19T03:53:07;64159.94;;;-137.53
64904;BMP280;51401;48.882;12.598;2023-11-19T03:55:32;64159.94;;;-137.53
64904;BMP280;51401;48.882;12.598;2023-11-19T03:57:57;64157.97;;;-137.53
64904;BMP280;51401;48.882;12.598;2023-11-19T04:00:23;64161.94;;;-137.53
64904;BMP280;51401;48.882;12.598;2023-11-19T04:02:48;64161.94;;;-137.53
64904;BMP280;51401;48.882;12.598;2023-11-19T04:05:14;64161.94;;;-137.53
64904;BMP280;51401;48.882;12.598;2023-11-19T04:07:39;64159.94;;;-137.53
64904;BMP280;51401;48.882;12.598;2023-11-19T04:10:05;64163.91;;;-137.53
64904;BMP280;51401;48.882;12.598;2023-11-19T04:12:30;64159.94;;;-137.53
64904;BMP280;51401;48.882;12.598;2023-11-19T04:14:55;64161.94;;;-137.53
64904;BMP280;51401;48.882;12.598;2023-11-19T04:17:21;64159.94;;;-137.53
64904;BMP280;51401;48.882;12.598;2023-11-19T04:19:48;64163.91;;;-137.53
64904;BMP280;51401;48.882;12.598;2023-11-19T04:22:13;64155.97;;;-137.53
64904;BMP280;51401;48.882;12.598;2023-11-19T04:24:38;64159.94;;;-137.53
64904;BMP280;51401;48.882;12.598;2023-11-19T04:27:05;64159.94;;;-137.53
64904;BMP280;51401;48.882;12.598;2023-11-19T04:29:31;64165.91;;;-137.53
64904;BMP280;51401;48.882;12.598;2023-11-19T04:31:57;64161.94;;;-137.53
64904;BMP280;51401;48.882;12.598;2023-11-19T04:34:22;64159.94;;;-137.53
64904;BMP280;51401;48.882;12.598;2023-11-19T04:36:48;64161.94;;;-137.53
64904;BMP280;51401;48.882;12.598;2023-11-19T04:39:13;64159.94;;;-137.53
64904;BMP280;51401;48.882;12.598;2023-11-19T04:41:50;64163.91;;;-137.53
64904;BMP280;51401;48.882;12.598;2023-11-19T04:44:17;64163.91;;;-137.53
64904;BMP280;51401;48.882;12.598;2023-11-19T04:46:43;64161.94;;;-137.53
64904;BMP280;51401;48.882;12.598;2023-11-19T04:49:09;64163.91;;;-137.53
64904;BMP280;51401;48.882;12.598;2023-11-19T04:51:41;64161.94;;;-137.53
64904;BMP280;51401;48.882;12.598;2023-11-19T04:54:10;64159.94;;;-137.53
64904;BMP280;51401;48.882;12.598;2023-11-19T04:56:36;64161.94;;;-137.53
64904;BMP280;51401;48.882;12.598;2023-11-19T04:59:03;64163.91;;;-137.53
64904;BMP280;51401;48.882;12.598;2023-11-19T05:01:28;64161.94;;;-137.53
64904;BMP280;51401;48.882;12.598;2023-11-19T05:03:53;64163.91;;;-137.53
64904;BMP280;51401;48.882;12.598;2023-11-19T05:06:18;64159.94;;;-137.53
64904;BMP280;51401;48.882;12.598;2023-11-19T05:08:44;64161.94;;;-137.53
64904;BMP280;51401;48.882;12.598;2023-11-19T05:11:09;64159.94;;;-137.53
64904;BMP280;51401;48.882;12.598;2023-11-19T05:13:37;64163.91;;;-137.53
64904;BMP280;51401;48.882;12.598;2023-11-19T05:16:03;64159.94;;;-137.53
64904;BMP280;51401;48.882;12.598;2023-11-19T05:18:28;64163.91;;;-137.53
64904;BMP280;51401;48.882;12.598;2023-11-19T05:20:54;64163.91;;;-137.53
64904;BMP280;51401;48.882;12.598;2023-11-19T05:23:19;64159.94;;;-137.53
64904;BMP280;51401;48.882;12.598;2023-11-19T05:25:45;64161.94;;;-137.53
64904;BMP280;51401;48.882;12.598;2023-11-19T05:28:10;64161.94;;;-137.53
64904;BMP280;51401;48.882;12.598;2023-11-19T05:30:36;64159.94;;;-137.53
64904;BMP280;51401;48.882;12.598;2023-11-19T05:33:01;64165.91;;;-137.53
64904;BMP280;51401;48.882;12.598;2023-11-19T05:35:26;64163.91;;;-137.53
64904;BMP280;51401;48.882;12.598;2023-11-19T05:37:51;64159.94;;;-137.53
64904;BMP280;51401;48.882;12.598;2023-11-19T05:40:17;64159.94;;;-137.53
64904;BMP280;51401;48.882;12.598;2023-11-19T05:42:42;64159.94;;;-137.53
64904;BMP280;51401;48.882;12.598;2023-11-19T05:45:11;64161.94;;;-137.53
64904;BMP280;51401;48.882;12.598;2023-11-19T05:47:36;64157.97;;;-137.53
64904;BMP280;51401;48.882;12.598;2023-11-19T05:50:02;64159.94;;;-137.53
64904;BMP280;51401;48.882;12.598;2023-11-19T05:52:27;64159.94;;;-137.53
64904;BMP280;51401;48.882;12.598;2023-11-19T05:54:54;64163.91;;;-137.53
64904;BMP280;51401;48.882;12.598;2023-11-19T05:57:20;64163.91;;;-137.53
64904;BMP280;51401;48.882;12.598;2023-11-19T05:59:49;64159.94;;;-137.53
64904;BMP280;51401;48.882;12.598;2023-11-19T06:02:14;64163.91;;;-137.53
64904;BMP280;51401;48.882;12.598;2023-11-19T06:04:42;64161.94;;;-137.53
64904;BMP280;51401;48.882;12.598;2023-11-19T06:07:09;64163.91;;;-137.53
64904;BMP280;51401;48.882;12.598;2023-11-19T06:09:35;64165.91;;;-137.53
64904;BMP280;51401;48.882;12.598;2023-11-19T06:12:00;64159.94;;;-137.53
64904;BMP280;51401;48.882;12.598;2023-11-19T06:14:27;64159.94;;;-137.53
64904;BMP280;51401;48.882;12.598;2023-11-19T06:16:52;64161.94;;;-137.53
64904;BMP280;51401;48.882;12.598;2023-11-19T06:19:18;64165.91;;;-137.53
64904;BMP280;51401;48.882;12.598;2023-11-19T06:21:43;64161.94;;;-137.53
64904;BMP280;51401;48.882;12.598;2023-11-19T06:24:08;64163.91;;;-137.53
64904;BMP280;51401;48.882;12.598;2023-11-19T06:26:34;64161.94;;;-137.53
64904;BMP280;51401;48.882;12.598;2023-11-19T06:28:59;64159.94;;;-137.53
64904;BMP280;51401;48.882;12.598;2023-11-19T06:31:25;64163.91;;;-137.53
64904;BMP280;51401;48.882;12.598;2023-11-19T06:33:50;64163.91;;;-137.53
64904;BMP280;51401;48.882;12.598;2023-11-19T06:36:15;64159.94;;;-137.53
64904;BMP280;51401;48.882;12.598;2023-11-19T06:38:44;64163.91;;;-137.53
64904;BMP280;51401;48.882;12.598;2023-11-19T06:41:09;64159.94;;;-137.53
64904;BMP280;51401;48.882;12.598;2023-11-19T06:43:36;64159.94;;;-137.53
64904;BMP280;51401;48.882;12.598;2023-11-19T06:46:01;64165.91;;;-137.53
64904;BMP280;51401;48.882;12.598;2023-11-19T06:48:27;64163.91;;;-137.53
64904;BMP280;51401;48.882;12.598;2023-11-19T06:50:52;64155.97;;;-137.53
64904;BMP280;51401;48.882;12.598;2023-11-19T06:53:17;64161.94;;;-137.53
64904;BMP280;51401;48.882;12.598;2023-11-19T06:55:42;64161.94;;;-137.53
64904;BMP280;51401;48.882;12.598;2023-11-19T06:58:08;64159.94;;;-137.53
64904;BMP280;51401;48.882;12.598;2023-11-19T07:00:33;64159.94;;;-137.53
64904;BMP280;51401;48.882;12.598;2023-11-19T07:03:01;64161.94;;;-137.53
64904;BMP280;51401;48.882;12.598;2023-11-19T07:05:26;64159.94;;;-137.53
64904;BMP280;51401;48.882;12.598;2023-11-19T07:07:51;64163.91;;;-137.53
64904;BMP280;51401;48.882;12.598;2023-11-19T07:10:17;64157.97;;;-137.53
64904;BMP280;51401;48.882;12.598;2023-11-19T07:12:42;64159.94;;;-137.53
64904;BMP280;51401;48.882;12.598;2023-11-19T07:15:07;64161.94;;;-137.53
64904;BMP280;51401;48.882;12.598;2023-11-19T07:17:34;64163.91;;;-137.53
64904;BMP280;51401;48.882;12.598;2023-11-19T07:20:00;64159.94;;;-137.53
64904;BMP280;51401;48.882;12.598;2023-11-19T07:22:26;64159.94;;;-137.53
64904;BMP280;51401;48.882;12.598;2023-11-19T07:24:51;64159.94;;;-137.53
64904;BMP280;51401;48.882;12.598;2023-11-19T07:27:18;64159.94;;;-137.53
64904;BMP280;51401;48.882;12.598;2023-11-19T07:29:43;64157.97;;;-137.53
64904;BMP280;51401;48.882;12.598;2023-11-19T07:32:10;64161.94;;;-137.53
64904;BMP280;51401;48.882;12.598;2023-11-19T07:34:36;64159.94;;;-137.53
64904;BMP280;51401;48.882;12.598;2023-11-19T07:37:01;64159.94;;;-137.53
64904;BMP280;51401;48.882;12.598;2023-11-19T07:39:28;64161.94;;;-137.53
64904;BMP280;51401;48.882;12.598;2023-11-19T07:41:54;64159.94;;;-137.53
64904;BMP280;51401;48.882;12.598;2023-11-19T07:44:20;64161.94;;;-137.53
64904;BMP280;51401;48.882;12.598;2023-11-19T07:46:46;64159.94;;;-137.53
64904;BMP280;51401;48.882;12.598;2023-11-19T07:49:12;64159.94;;;-137.53
64904;BMP280;51401;48.882;12.598;2023-11-19T07:51:37;64161.94;;;-137.53
64904;BMP280;51401;48.882;12.598;2023-11-19T07:54:03;64159.94;;;-137.53
64904;BMP280;51401;48.882;12.598;2023-11-19T07:56:29;64161.94;;;-137.53
64904;BMP280;51401;48.882;12.598;2023-11-19T07:58:54;64161.94;;;-137.53
64904;BMP280;51401;48.882;12.598;2023-11-19T08:01:19;64163.91;;;-137.53
64904;BMP280;51401;48.882;12.598;2023-11-19T08:03:45;64161.94;;;-137.53
64904;BMP280;51401;48.882;12.598;2023-11-19T08:06:10;64161.94;;;-137.53
64904;BMP280;51401;48.882;12.598;2023-11-19T08:08:35;64157.97;;;-137.53
64904;BMP280;51401;48.882;12.598;2023-11-19T08:11:03;64159.94;;;-137.53
64904;BMP280;51401;48.882;12.598;2023-11-19T08:13:30;64163.91;;;-137.53
64904;BMP280;51401;48.882;12.598;2023-11-19T08:15:56;64161.94;;;-137.53
64904;BMP280;51401;48.882;12.598;2023-11-19T08:18:23;64159.94;;;-137.53
64904;BMP280;51401;48.882;12.598;2023-11-19T08:20:48;64161.94;;;-137.53
64904;BMP280;51401;48.882;12.598;2023-11-19T08:23:17;64163.91;;;-137.53
64904;BMP280;51401;48.882;12.598;2023-11-19T08:25:43;64159.94;;;-137.53
64904;BMP280;51401;48.882;12.598;2023-11-19T08:28:09;64159.94;;;-137.53
64904;BMP280;51401;48.882;12.598;2023-11-19T08:30:34;64159.94;;;-137.53
64904;BMP280;51401;48.882;12.598;2023-11-19T08:33:00;64159.94;;;-137.53
64904;BMP280;51401;48.882;12.598;2023-11-19T08:35:28;64159.94;;;-137.53
64904;BMP280;51401;48.882;12.598;2023-11-19T08:37:53;64159.94;;;-137.53
64904;BMP280;51401;48.882;12.598;2023-11-19T08:40:19;64161.94;;;-137.53
64904;BMP280;51401;48.882;12.598;2023-11-19T08:42:45;64159.94;;;-137.53
64904;BMP280;51401;48.882;12.598;2023-11-19T08:45:10;64159.94;;;-137.53
64904;BMP280;51401;48.882;12.598;2023-11-19T08:47:37;64159.94;;;-137.53
64904;BMP280;51401;48.882;12.598;2023-11-19T08:50:02;64159.94;;;-137.53
64904;BMP280;51401;48.882;12.598;2023-11-19T08:52:29;64159.94;;;-137.53
64904;BMP280;51401;48.882;12.598;2023-11-19T08:54:55;64161.94;;;-137.53
64904;BMP280;51401;48.882;12.598;2023-11-19T08:57:20;64163.91;;;-137.53
64904;BMP280;51401;48.882;12.598;2023-11-19T08:59:45;64155.97;;;-137.53
64904;BMP280;51401;48.882;12.598;2023-11-19T09:02:11;64159.94;;;-137.53
64904;BMP280;51401;48.882;12.598;2023-11-19T09:04:36;64159.94;;;-137.53
64904;BMP280;51401;48.882;12.598;2023-11-19T09:07:02;64161.94;;;-137.53
64904;BMP280;51401;48.882;12.598;2023-11-19T09:09:28;64157.97;;;-137.53
64904;BMP280;51401;48.882;12.598;2023-11-19T09:11:53;64159.94;;;-137.53
64904;BMP280;51401;48.882;12.598;2023-11-19T09:14:19;64159.94;;;-137.53
64904;BMP280;51401;48.882;12.598;2023-11-19T09:16:49;64161.94;;;-137.53
64904;BMP280;51401;48.882;12.598;2023-11-19T09:19:14;64159.94;;;-137.53
64904;BMP280;51401;48.882;12.598;2023-11-19T09:21:39;64159.94;;;-137.53
64904;BMP280;51401;48.882;12.598;2023-11-19T09:24:05;64157.97;;;-137.53
64904;BMP280;51401;48.882;12.598;2023-11-19T09:26:30;64157.97;;;-137.53
64904;BMP280;51401;48.882;12.598;2023-11-19T09:28:56;64159.94;;;-137.53
64904;BMP280;51401;48.882;12.598;2023-11-19T09:31:21;64159.94;;;-137.53
64904;BMP280;51401;48.882;12.598;2023-11-19T09:33:46;64157.97;;;-137.53
64904;BMP280;51401;48.882;12.598;2023-11-19T09:36:12;64155.97;;;-137.53
64904;BMP280;51401;48.882;12.598;2023-11-19T09:38:43;64157.97;;;-137.53
64904;BMP280;51401;48.882;12.598;2023-11-19T09:41:09;64159.94;;;-137.53
64904;BMP280;51401;48.882;12.598;2023-11-19T09:43:37;64159.94;;;-137.53
64904;BMP280;51401;48.882;12.598;2023-11-19T09:46:05;64157.97;;;-137.53
64904;BMP280;51401;48.882;12.598;2023-11-19T09:48:35;64159.94;;;-137.53
64904;BMP280;51401;48.882;12.598;2023-11-19T09:51:02;64157.97;;;-137.53
64904;BMP280;51401;48.882;12.598;2023-11-19T09:53:28;64159.94;;;-137.53
64904;BMP280;51401;48.882;12.598;2023-11-19T09:55:53;64155.97;;;-137.53
64904;BMP280;51401;48.882;12.598;2023-11-19T09:58:19;64157.97;;;-137.53
64904;BMP280;51401;48.882;12.598;2023-11-19T10:00:44;64155.97;;;-137.53
64904;BMP280;51401;48.882;12.598;2023-11-19T10:03:11;64155.97;;;-137.53
64904;BMP280;51401;48.882;12.598;2023-11-19T10:05:37;64155.97;;;-137.53
64904;BMP280;51401;48.882;12.598;2023-11-19T10:08:04;64155.97;;;-137.53
64904;BMP280;51401;48.882;12.598;2023-11-19T10:10:30;64157.97;;;-137.53
64904;BMP280;51401;48.882;12.598;2023-11-19T10:12:55;64159.94;;;-137.53
64904;BMP280;51401;48.882;12.598;2023-11-19T10:15:21;64155.97;;;-137.53
64904;BMP280;51401;48.882;12.598;2023-11-19T10:17:48;64159.94;;;-137.53
64904;BMP280;51401;48.882;12.598;2023-11-19T10:20:13;64155.97;;;-137.53
64904;BMP280;51401;48.882;12.598;2023-11-19T10:22:38;64155.97;;;-137.53
64904;BMP280;51401;48.882;12.598;2023-11-19T10:25:05;64154.00;;;-137.53
64904;BMP280;51401;48.882;12.598;2023-11-19T10:27:30;64155.97;;;-137.53
64904;BMP280;51401;48.882;12.598;2023-11-19T10:29:59;64155.97;;;-137.53
64904;BMP280;51401;48.882;12.598;2023-11-19T10:32:24;64155.97;;;-137.53
64904;BMP280;51401;48.882;12.598;2023-11-19T10:34:50;64155.97;;;-137.53
64904;BMP280;51401;48.882;12.598;2023-11-19T10:37:30;64154.00;;;-137.53
64904;BMP280;51401;48.882;12.598;2023-11-19T10:40:01;64155.97;;;-137.53
64904;BMP280;51401;48.882;12.598;2023-11-19T10:42:26;64155.97;;;-137.53
64904;BMP280;51401;48.882;12.598;2023-11-19T10:44:51;64155.97;;;-137.53
64904;BMP280;51401;48.882;12.598;2023-11-19T10:47:19;64154.00;;;-137.53
64904;BMP280;51401;48.882;12.598;2023-11-19T10:49:45;64152.00;;;-137.53
64904;BMP280;51401;48.882;12.598;2023-11-19T10:52:18;64157.97;;;-137.53
64904;BMP280;51401;48.882;12.598;2023-11-19T10:54:50;64152.00;;;-137.53
64904;BMP280;51401;48.882;12.598;2023-11-19T10:57:20;64155.97;;;-137.53
64904;BMP280;51401;48.882;12.598;2023-11-19T10:59:47;64154.00;;;-137.53
64904;BMP280;51401;48.882;12.598;2023-11-19T11:02:14;64157.97;;;-137.53
64904;BMP280;51401;48.882;12.598;2023-11-19T11:04:41;64155.97;;;-137.53
64904;BMP280;51401;48.882;12.598;2023-11-19T11:07:07;64155.97;;;-137.53
64904;BMP280;51401;48.882;12.598;2023-11-19T11:09:34;64155.97;;;-137.53
64904;BMP280;51401;48.882;12.598;2023-11-19T11:12:00;64152.00;;;-137.53
64904;BMP280;51401;48.882;12.598;2023-11-19T11:14:27;64152.00;;;-137.53
64904;BMP280;51401;48.882;12.598;2023-11-19T11:16:53;64154.00;;;-137.53
64904;BMP280;51401;48.882;12.598;2023-11-19T11:19:19;64155.97;;;-137.53
64904;BMP280;51401;48.882;12.598;2023-11-19T11:21:50;64150.03;;;-137.53
64904;BMP280;51401;48.882;12.598;2023-11-19T11:24:32;64152.00;;;-137.53
64904;BMP280;51401;48.882;12.598;2023-11-19T11:29:47;64152.00;;;-137.53
64904;BMP280;51401;48.882;12.598;2023-11-19T11:38:13;64155.97;;;-137.53
64904;BMP280;51401;48.882;12.598;2023-11-19T11:40:39;64152.00;;;-137.53
64904;BMP280;51401;48.882;12.598;2023-11-19T11:48:59;64152.00;;;-137.53
64904;BMP280;51401;48.882;12.598;2023-11-19T11:57:03;64152.00;;;-137.53
64904;BMP280;51401;48.882;12.598;2023-11-19T11:59:36;64154.00;;;-137.53
64904;BMP280;51401;48.882;12.598;2023-11-19T12:02:03;64148.03;;;-137.53
64904;BMP280;51401;48.882;12.598;2023-11-19T12:04:28;64152.00;;;-137.53
64904;BMP280;51401;48.882;12.598;2023-11-19T12:07:08;64150.03;;;-137.53
64904;BMP280;51401;48.882;12.598;2023-11-19T12:09:40;64150.03;;;-137.53
64904;BMP280;51401;48.882;12.598;2023-11-19T12:20:04;64148.03;;;-137.53
64904;BMP280;51401;48.882;12.598;2023-11-19T12:22:31;64152.00;;;-137.53
64904;BMP280;51401;48.882;12.598;2023-11-19T12:24:56;64152.00;;;-137.53
64904;BMP280;51401;48.882;12.598;2023-11-19T12:27:22;64152.00;;;-137.53
64904;BMP280;51401;48.882;12.598;2023-11-19T12:29:48;64152.00;;;-137.53
64904;BMP280;51401;48.882;12.598;2023-11-19T12:32:13;64152.00;;;-137.53
64904;BMP280;51401;48.882;12.598;2023-11-19T12:34:39;64152.00;;;-137.53
64904;BMP280;51401;48.882;12.598;2023-11-19T12:37:04;64150.03;;;-137.53
64904;BMP280;51401;48.882;12.598;2023-11-19T12:39:30;64150.03;;;-137.53
64904;BMP280;51401;48.882;12.598;2023-11-19T12:41:56;64148.03;;;-137.53
64904;BMP280;51401;48.882;12.598;2023-11-19T12:44:24;64148.03;;;-137.53
64904;BMP280;51401;48.882;12.598;2023-11-19T12:47:06;64148.03;;;-137.53
64904;BMP280;51401;48.882;12.598;2023-11-19T12:49:33;64148.03;;;-137.53
64904;BMP280;51401;48.882;12.598;2023-11-19T12:51:58;64148.03;;;-137.53
64904;BMP280;51401;48.882;12.598;2023-11-19T12:54:37;64148.03;;;-137.53
64904;BMP280;51401;48.882;12.598;2023-11-19T12:57:03;64144.06;;;-137.53
64904;BMP280;51401;48.882;12.598;2023-11-19T12:59:30;64148.03;;;-137.53
64904;BMP280;51401;48.882;12.598;2023-11-19T13:01:59;64148.03;;;-137.53
64904;BMP280;51401;48.882;12.598;2023-11-19T13:04:28;64150.03;;;-137.53
64904;BMP280;51401;48.882;12.598;2023-11-19T13:06:56;64150.03;;;-137.53
64904;BMP280;51401;48.882;12.598;2023-11-19T13:09:26;64150.03;;;-137.53
64904;BMP280;51401;48.882;12.598;2023-11-19T13:11:52;64150.03;;;-137.53
64904;BMP280;51401;48.882;12.598;2023-11-19T13:14:18;64148.03;;;-137.53
64904;BMP280;51401;48.882;12.598;2023-11-19T13:16:44;64146.03;;;-137.53
64904;BMP280;51401;48.882;12.598;2023-11-19T13:19:12;64148.03;;;-137.53
64904;BMP280;51401;48.882;12.598;2023-11-19T13:21:38;64148.03;;;-137.53
64904;BMP280;51401;48.882;12.598;2023-11-19T13:24:05;64144.06;;;-137.53
64904;BMP280;51401;48.882;12.598;2023-11-19T13:26:30;64144.06;;;-137.53
64904;BMP280;51401;48.882;12.598;2023-11-19T13:28:56;64148.03;;;-137.53
64904;BMP280;51401;48.882;12.598;2023-11-19T13:31:22;64142.06;;;-137.53
64904;BMP280;51401;48.882;12.598;2023-11-19T13:33:47;64144.06;;;-137.53
64904;BMP280;51401;48.882;12.598;2023-11-19T13:36:13;64142.06;;;-137.53
64904;BMP280;51401;48.882;12.598;2023-11-19T13:38:38;64140.09;;;-137.53
64904;BMP280;51401;48.882;12.598;2023-11-19T13:41:06;64142.06;;;-137.53
64904;BMP280;51401;48.882;12.598;2023-11-19T13:43:32;64142.06;;;-137.53
64904;BMP280;51401;48.882;12.598;2023-11-19T13:45:57;64144.06;;;-137.53
64904;BMP280;51401;48.882;12.598;2023-11-19T13:48:23;64144.06;;;-137.53
64904;BMP280;51401;48.882;12.598;2023-11-19T13:50:49;64146.03;;;-137.53
64904;BMP280;51401;48.882;12.598;2023-11-19T13:53:17;64144.06;;;-137.53
64904;BMP280;51401;48.882;12.598;2023-11-19T13:55:43;64138.09;;;-137.53